MRH13 EGYM-EGYM

Flight info

Callsign MRH13
Flight time 0h 23m
Altitude 14000
Route DISPLAY WORKUP
Aircraft VF35/M-SDU/C

Departure

Time 2026-04-20 18:23
Airport RAF Marham (EGYM)

Arrival

Time 2026-04-20 18:46
Airport RAF Marham (EGYM)
Time Latitude Longitude Altitude Speed Heading
2026-04-20 18:10 52.63882 0.53794 83 ft 0 kts 291°
2026-04-20 18:17 52.63882 0.53758 86 ft 8 kts 243°
2026-04-20 18:17 52.63813 0.53708 83 ft 10 kts 201°
2026-04-20 18:17 52.63789 0.53659 83 ft 5 kts 274°
2026-04-20 18:18 52.63802 0.53602 85 ft 5 kts 296°
2026-04-20 18:18 52.63828 0.53557 83 ft 6 kts 325°
2026-04-20 18:18 52.63863 0.53534 84 ft 5 kts 349°
2026-04-20 18:18 52.63900 0.53538 83 ft 5 kts 12°
2026-04-20 18:19 52.63936 0.53558 84 ft 5 kts 21°
2026-04-20 18:19 52.63970 0.53580 83 ft 5 kts 21°
2026-04-20 18:19 52.64005 0.53600 84 ft 5 kts
2026-04-20 18:19 52.64023 0.53572 85 ft 3 kts 288°
2026-04-20 18:20 52.64033 0.53527 84 ft 8 kts 292°
2026-04-20 18:20 52.64072 0.53442 83 ft 0 kts 321°
2026-04-20 18:22 52.64081 0.53431 83 ft 8 kts 325°
2026-04-20 18:22 52.64140 0.53417 84 ft 7 kts 32°
2026-04-20 18:22 52.64171 0.53475 84 ft 5 kts 56°
2026-04-20 18:22 52.64278 0.53728 84 ft 109 kts 54°
2026-04-20 18:23 52.65045 0.55576 503 ft 248 kts 55°
2026-04-20 18:23 52.66177 0.58303 1703 ft 331 kts 56°
2026-04-20 18:23 52.65776 0.61694 2938 ft 367 kts 153°
2026-04-20 18:23 52.63369 0.60536 3340 ft 405 kts 237°
2026-04-20 18:24 52.62032 0.56392 3325 ft 415 kts 244°
2026-04-20 18:24 52.60375 0.53023 3830 ft 358 kts 200°
2026-04-20 18:24 52.58015 0.51830 3448 ft 355 kts 195°
2026-04-20 18:24 52.55669 0.50666 3231 ft 348 kts 195°
2026-04-20 18:25 52.53405 0.49473 3190 ft 330 kts 211°
2026-04-20 18:25 52.53186 0.46495 3129 ft 292 kts 330°
2026-04-20 18:25 52.54535 0.47550 3204 ft 265 kts 96°
2026-04-20 18:25 52.53121 0.49063 3588 ft 303 kts 194°
2026-04-20 18:26 52.52021 0.46200 3361 ft 347 kts 292°
2026-04-20 18:26 52.54066 0.44624 2973 ft 378 kts
2026-04-20 18:26 52.56921 0.45078 2577 ft 442 kts
2026-04-20 18:26 52.59984 0.45310 1696 ft 426 kts 16°
2026-04-20 18:27 52.62031 0.48457 1042 ft 414 kts 54°
2026-04-20 18:27 52.63726 0.52464 444 ft 433 kts 54°
2026-04-20 18:27 52.65469 0.56548 367 ft 434 kts 54°
2026-04-20 18:27 52.67611 0.58216 3979 ft 236 kts 41°
2026-04-20 18:28 52.67221 0.59021 1868 ft 245 kts 212°
2026-04-20 18:28 52.65459 0.56576 438 ft 421 kts 233°
2026-04-20 18:28 52.63754 0.51895 1121 ft 464 kts 255°
2026-04-20 18:28 52.62592 0.49659 5070 ft 208 kts 128°
2026-04-20 18:29 52.62885 0.51033 1893 ft 195 kts 40°
2026-04-20 18:29 52.63953 0.53063 253 ft 305 kts 49°
2026-04-20 18:29 52.64991 0.56955 755 ft 446 kts 117°
2026-04-20 18:29 52.62949 0.55705 1949 ft 464 kts 288°
2026-04-20 18:30 52.65209 0.56231 1409 ft 476 kts 53°
2026-04-20 18:30 52.66769 0.60811 1631 ft 412 kts 97°
2026-04-20 18:30 52.66390 0.64128 2246 ft 220 kts
2026-04-20 18:30 52.66855 0.62667 1578 ft 185 kts 268°
2026-04-20 18:31 52.66697 0.60540 1090 ft 181 kts 258°
2026-04-20 18:31 52.66350 0.58720 658 ft 152 kts 239°
2026-04-20 18:31 52.65701 0.57133 429 ft 191 kts 235°
2026-04-20 18:31 52.64935 0.55336 495 ft 190 kts 236°
2026-04-20 18:32 52.64184 0.53585 573 ft 222 kts 227°
2026-04-20 18:32 52.63514 0.54410 1143 ft 189 kts 24°
2026-04-20 18:32 52.63752 0.52962 793 ft 250 kts 185°
2026-04-20 18:32 52.63645 0.54604 967 ft 280 kts
2026-04-20 18:33 52.64392 0.56749 1112 ft 364 kts 153°
2026-04-20 18:33 52.63640 0.54050 722 ft 425 kts 339°
2026-04-20 18:33 52.65466 0.56892 655 ft 404 kts 59°
2026-04-20 18:33 52.67043 0.60983 2671 ft 432 kts 54°
2026-04-20 18:34 52.68931 0.64854 4610 ft 434 kts 47°
2026-04-20 18:34 52.68781 0.67744 5896 ft 249 kts 213°
2026-04-20 18:34 52.67469 0.65972 5219 ft 277 kts 221°
2026-04-20 18:34 52.65764 0.64180 5230 ft 310 kts 201°
2026-04-20 18:35 52.63564 0.63188 5245 ft 344 kts 191°
2026-04-20 18:35 52.61178 0.62182 5380 ft 373 kts 194°
2026-04-20 18:35 52.58667 0.60630 5470 ft 399 kts 204°
2026-04-20 18:35 52.56277 0.58050 5299 ft 427 kts 221°
2026-04-20 18:36 52.55115 0.53862 4602 ft 413 kts 277°
2026-04-20 18:36 52.55204 0.49386 4503 ft 412 kts 268°
2026-04-20 18:36 52.55023 0.43899 4637 ft 493 kts 267°
2026-04-20 18:36 52.54984 0.38728 4703 ft 420 kts 273°
2026-04-20 18:37 52.55421 0.34279 4488 ft 372 kts 288°
2026-04-20 18:37 52.57252 0.31215 3996 ft 380 kts
2026-04-20 18:37 52.59233 0.32471 3806 ft 293 kts 73°
2026-04-20 18:37 52.59652 0.35680 3513 ft 306 kts 75°
2026-04-20 18:38 52.60152 0.39580 2968 ft 317 kts 74°
2026-04-20 18:38 52.60562 0.42645 2011 ft 235 kts 73°
2026-04-20 18:38 52.61012 0.45012 1497 ft 209 kts 66°
2026-04-20 18:38 52.61568 0.47018 1065 ft 180 kts 59°
2026-04-20 18:39 52.62176 0.48625 810 ft 149 kts 53°
2026-04-20 18:39 52.62915 0.50423 577 ft 232 kts 54°
2026-04-20 18:39 52.63925 0.52859 495 ft 342 kts 52°
2026-04-20 18:39 52.65659 0.56978 764 ft 501 kts 55°
2026-04-20 18:40 52.67481 0.61075 6295 ft 374 kts 30°
2026-04-20 18:40 52.69368 0.60690 3189 ft 302 kts 279°
2026-04-20 18:40 52.68283 0.58280 980 ft 256 kts 182°
2026-04-20 18:40 52.66245 0.57372 855 ft 390 kts 208°
2026-04-20 18:41 52.64163 0.53203 827 ft 550 kts 256°
2026-04-20 18:41 52.64211 0.47873 4923 ft 368 kts 275°
2026-04-20 18:41 52.62875 0.46766 5290 ft 238 kts 119°
2026-04-20 18:41 52.62927 0.49807 3002 ft 349 kts 66°
2026-04-20 18:42 52.64520 0.54307 463 ft 542 kts 55°
2026-04-20 18:42 52.66612 0.59427 2527 ft 441 kts 56°
2026-04-20 18:42 52.68407 0.61143 4783 ft 268 kts 310°
2026-04-20 18:42 52.67524 0.59016 1878 ft 269 kts 181°
2026-04-20 18:43 52.66162 0.58077 956 ft 178 kts 230°
2026-04-20 18:43 52.65493 0.56560 445 ft 158 kts 238°
2026-04-20 18:43 52.64884 0.55132 395 ft 147 kts 238°
2026-04-20 18:43 52.64276 0.53714 544 ft 168 kts 236°
2026-04-20 18:44 52.63341 0.53770 1036 ft 191 kts 79°
2026-04-20 18:44 52.64436 0.54520 1119 ft 211 kts 53°
2026-04-20 18:44 52.63665 0.55139 1214 ft 220 kts 259°
2026-04-20 18:44 52.64453 0.54682 1343 ft 179 kts 62°
2026-04-20 18:45 52.64937 0.56176 5136 ft 143 kts 61°
2026-04-20 18:45 52.64199 0.57213 4836 ft 202 kts 196°
2026-04-20 18:45 52.63767 0.55612 1745 ft 150 kts
2026-04-20 18:45 52.64649 0.56256 675 ft 109 kts 16°
2026-04-20 18:46 52.65047 0.55860 636 ft 51 kts 289°
2026-04-20 18:46 52.65021 0.55569 491 ft 2 kts 284°
2026-04-20 18:46 52.65006 0.55547 363 ft 1 kts 327°
2026-04-20 18:46 52.65006 0.55541 367 ft 0 kts 355°
2026-04-20 18:47 52.64996 0.55536 244 ft 4 kts 134°
2026-04-20 18:47 52.64984 0.55531 231 ft 11 kts 286°
2026-04-20 18:47 52.64914 0.55386 244 ft 18 kts 329°
2026-04-20 18:47 52.64841 0.55216 269 ft 18 kts 323°
2026-04-20 18:48 52.64842 0.55080 331 ft 1 kts 58°
2026-04-20 18:48 52.65046 0.55624 337 ft 122 kts 52°
2026-04-20 18:48 52.65771 0.57302 969 ft 230 kts 67°
2026-04-20 18:48 52.66435 0.60290 3582 ft 349 kts 83°
2026-04-20 18:49 52.67339 0.62953 3740 ft 215 kts 331°
2026-04-20 18:49 52.67620 0.61247 3023 ft 128 kts 248°
2026-04-20 18:49 52.66745 0.59647 1514 ft 302 kts 235°
2026-04-20 18:49 52.65332 0.56184 477 ft 384 kts 237°
2026-04-20 18:50 52.63825 0.52880 419 ft 339 kts 239°
2026-04-20 18:50 52.62388 0.52221 1004 ft 212 kts 107°
2026-04-20 18:50 52.63057 0.53293 921 ft 124 kts 352°
2026-04-20 18:50 52.63690 0.53071 607 ft 77 kts 21°
2026-04-20 18:51 52.64049 0.53532 464 ft 67 kts 46°
2026-04-20 18:51 52.64363 0.54179 415 ft 74 kts 53°
2026-04-20 18:51 52.64654 0.54871 365 ft 72 kts 52°
2026-04-20 18:51 52.64934 0.55556 316 ft 73 kts 51°
2026-04-20 18:52 52.65224 0.56231 267 ft 72 kts 50°
2026-04-20 18:52 52.65565 0.56989 258 ft 124 kts 49°
2026-04-20 18:52 52.66427 0.58792 1109 ft 261 kts 69°
2026-04-20 18:52 52.65713 0.61806 2875 ft 358 kts 149°
2026-04-20 18:53 52.63092 0.61064 3247 ft 446 kts 226°
2026-04-20 18:53 52.61737 0.56999 3555 ft 378 kts 245°
2026-04-20 18:53 52.61027 0.54503 3603 ft 350 kts 245°
2026-04-20 18:53 52.60106 0.51048 3681 ft 303 kts 264°
2026-04-20 18:54 52.60974 0.48740 3083 ft 235 kts 354°
2026-04-20 18:54 52.62235 0.49659 1981 ft 182 kts 46°
2026-04-20 18:54 52.62935 0.51026 1331 ft 122 kts 56°
2026-04-20 18:54 52.63334 0.52027 1092 ft 105 kts 54°
2026-04-20 18:55 52.63745 0.53005 799 ft 101 kts 54°
2026-04-20 18:55 52.64066 0.53781 603 ft 66 kts 53°
2026-04-20 18:55 52.64305 0.54370 463 ft 43 kts 53°
2026-04-20 18:55 52.64357 0.54517 420 ft 1 kts 53°
2026-04-20 18:56 52.64364 0.54544 230 ft 5 kts 324°
2026-04-20 18:56 52.64397 0.54589 166 ft 8 kts 296°
2026-04-20 18:56 52.64433 0.54630 155 ft 4 kts 327°
2026-04-20 18:56 52.64439 0.54638 107 ft 1 kts 326°
2026-04-20 18:57 52.64441 0.54634 82 ft 0 kts 324°
2026-04-20 18:57 52.64441 0.54626 82 ft 1 kts 263°
2026-04-20 18:57 52.64435 0.54625 81 ft 1 kts 163°
2026-04-20 18:58 52.64379 0.54694 83 ft 14 kts 144°
2026-04-20 18:58 52.64324 0.54754 83 ft 6 kts 167°
2026-04-20 18:58 52.64292 0.54716 84 ft 6 kts 236°
2026-04-20 18:58 52.64261 0.54661 83 ft 7 kts 220°
2026-04-20 18:59 52.64212 0.54634 83 ft 8 kts 184°
2026-04-20 18:59 52.64140 0.54624 83 ft 12 kts 185°
2026-04-20 18:59 52.64055 0.54613 83 ft 13 kts 184°
2026-04-20 18:59 52.64016 0.54607 87 ft 3 kts 185°
2026-04-20 19:00 52.63978 0.54598 83 ft 3 kts 217°
2026-04-20 19:00 52.63973 0.54506 83 ft 11 kts 275°
2026-04-20 19:00 52.63980 0.54375 83 ft 12 kts 275°
2026-04-20 19:00 52.63987 0.54251 85 ft 11 kts 275°
2026-04-20 19:01 52.63994 0.54124 83 ft 12 kts 275°
2026-04-20 19:01 52.64001 0.53991 86 ft 9 kts 276°
2026-04-20 19:01 52.63997 0.53923 86 ft 5 kts 231°
2026-04-20 19:01 52.63965 0.53898 78 ft 6 kts 201°
2026-04-20 19:02 52.63924 0.53872 85 ft 7 kts 201°
2026-04-20 19:02 52.63883 0.53845 85 ft 4 kts 201°
2026-04-20 19:02 52.63876 0.53816 86 ft 6 kts 279°
2026-04-20 19:02 52.63879 0.53801 85 ft 1 kts 292°
2026-04-20 19:03 52.63881 0.53794 83 ft 0 kts 291°